createdAt,value
2023-03-05T00:04:47.590Z,1.51
2023-03-05T00:09:51.193Z,1.48
2023-03-05T00:14:54.747Z,1.45
2023-03-05T00:20:01.914Z,1.43
2023-03-05T00:25:08.070Z,1.39
2023-03-05T00:30:14.179Z,1.35
2023-03-05T00:35:18.464Z,1.31
2023-03-05T00:40:22.793Z,1.29
2023-03-05T00:45:26.411Z,1.28
2023-03-05T00:50:30.158Z,1.24
2023-03-05T00:55:35.499Z,1.22
2023-03-05T01:00:38.946Z,1.19
2023-03-05T01:05:43.336Z,1.15
2023-03-05T01:10:47.253Z,1.13
2023-03-05T01:15:50.621Z,1.08
2023-03-05T01:20:54.362Z,1.04
2023-03-05T01:25:59.249Z,1.00
2023-03-05T01:31:06.443Z,0.97
2023-03-05T01:36:14.522Z,0.97
2023-03-05T01:41:18.879Z,0.95
2023-03-05T01:46:28.972Z,0.94
2023-03-05T01:51:38.039Z,0.94
2023-03-05T01:56:43.406Z,0.94
2023-03-05T02:01:53.068Z,0.94
2023-03-05T02:06:56.858Z,0.93
2023-03-05T02:12:00.348Z,0.95
2023-03-05T02:17:04.009Z,0.94
2023-03-05T02:22:15.052Z,0.96
2023-03-05T02:27:22.607Z,0.96
2023-03-05T02:32:26.283Z,0.92
2023-03-05T02:37:29.846Z,0.89
2023-03-05T02:42:33.710Z,0.79
2023-03-05T02:47:38.373Z,0.69
2023-03-05T02:52:43.521Z,0.64
2023-03-05T02:57:50.756Z,0.60
2023-03-05T03:02:54.392Z,0.58
2023-03-05T03:07:57.840Z,0.54
2023-03-05T03:13:01.378Z,0.49
2023-03-05T03:18:05.333Z,0.46
2023-03-05T03:23:08.826Z,0.43
2023-03-05T03:28:12.354Z,0.39
2023-03-05T03:33:17.646Z,0.35
2023-03-05T03:38:21.313Z,0.33
2023-03-05T03:43:24.749Z,0.30
2023-03-05T03:48:28.166Z,0.27
2023-03-05T03:53:31.884Z,0.23
2023-03-05T03:58:35.268Z,0.22
2023-03-05T04:03:38.761Z,0.20
2023-03-05T04:08:42.149Z,0.18
2023-03-05T04:13:45.655Z,0.18
2023-03-05T04:18:49.158Z,0.17
2023-03-05T04:23:52.755Z,0.18
2023-03-05T04:28:56.240Z,0.19
2023-03-05T04:34:00.653Z,0.20
2023-03-05T04:39:04.346Z,0.21
2023-03-05T04:44:08.008Z,0.21
2023-03-05T04:49:11.489Z,0.23
2023-03-05T04:54:14.956Z,0.25
2023-03-05T04:59:18.321Z,0.26
2023-03-05T05:04:22.052Z,0.30
2023-03-05T05:09:25.908Z,0.35
2023-03-05T05:14:29.310Z,0.40
2023-03-05T05:19:34.141Z,0.44
2023-03-05T05:24:37.773Z,0.45
2023-03-05T05:29:41.421Z,0.44
2023-03-05T05:34:44.867Z,0.43
2023-03-05T05:39:49.674Z,0.42
2023-03-05T05:44:54.798Z,0.42
2023-03-05T05:49:58.750Z,0.43
2023-03-05T05:55:02.395Z,0.45
2023-03-05T06:00:09.968Z,0.46
2023-03-05T06:05:15.955Z,0.48
2023-03-05T06:10:19.587Z,0.51
2023-03-05T06:15:24.279Z,0.55
2023-03-05T06:20:28.057Z,0.61
2023-03-05T06:25:31.586Z,0.63
2023-03-05T06:30:35.036Z,0.64
2023-03-05T06:35:39.387Z,0.65
2023-03-05T06:40:42.845Z,0.69
2023-03-05T06:45:46.582Z,0.67
2023-03-05T06:50:50.067Z,0.65
2023-03-05T06:55:53.912Z,0.66
2023-03-05T07:00:57.453Z,0.69
2023-03-05T07:06:03.785Z,0.75
2023-03-05T07:11:11.188Z,0.79
2023-03-05T07:16:17.885Z,0.82
2023-03-05T07:21:23.364Z,0.90
2023-03-05T07:26:28.375Z,1.00
2023-03-05T07:31:32.408Z,1.11
2023-03-05T07:36:37.440Z,1.22
2023-03-05T07:41:40.979Z,1.31
2023-03-05T07:46:45.145Z,1.40
2023-03-05T07:51:48.643Z,1.48
2023-03-05T07:56:54.889Z,1.55
2023-03-05T08:01:59.276Z,1.62
2023-03-05T08:07:03.460Z,1.66
2023-03-05T08:12:09.740Z,1.66
2023-03-05T08:17:13.320Z,1.66
2023-03-05T08:22:19.864Z,1.63
2023-03-05T08:27:23.664Z,1.68
2023-03-05T08:32:27.302Z,1.74
2023-03-05T08:37:31.133Z,1.75
2023-03-05T08:42:34.723Z,1.73
2023-03-05T08:47:38.214Z,1.73
2023-03-05T08:52:41.999Z,1.65
2023-03-05T08:57:45.445Z,1.62
2023-03-05T09:02:49.035Z,1.59
2023-03-05T09:07:52.694Z,1.59
2023-03-05T09:12:56.191Z,1.63
2023-03-05T09:17:59.751Z,1.64
2023-03-05T09:23:03.547Z,1.65
2023-03-05T09:28:07.173Z,1.70
2023-03-05T09:33:10.723Z,1.65
2023-03-05T09:38:14.239Z,1.48
2023-03-05T09:43:29.608Z,1.35
2023-03-05T09:48:47.840Z,1.32
2023-03-05T09:54:02.816Z,1.47
2023-03-05T09:59:20.765Z,1.61
2023-03-05T10:04:29.052Z,1.73
2023-03-05T10:09:44.778Z,1.84
2023-03-05T10:14:49.878Z,2.03
2023-03-05T10:20:25.374Z,2.24
2023-03-05T10:25:43.370Z,2.41
2023-03-05T10:31:18.846Z,2.50
2023-03-05T10:36:46.244Z,2.80
2023-03-05T10:42:05.222Z,3.02
2023-03-05T10:47:21.299Z,3.19
2023-03-05T10:52:31.904Z,3.28
2023-03-05T10:57:35.698Z,3.17
2023-03-05T11:02:55.300Z,3.10
2023-03-05T11:07:58.695Z,2.99
2023-03-05T11:13:22.041Z,2.91
2023-03-05T11:18:25.541Z,2.84
2023-03-05T11:23:28.860Z,2.83
2023-03-05T11:28:35.645Z,2.89
2023-03-05T11:33:39.130Z,3.06
2023-03-05T11:38:50.836Z,3.24
2023-03-05T11:43:55.447Z,3.38
2023-03-05T11:48:59.075Z,3.58
2023-03-05T11:54:08.783Z,3.92
2023-03-05T11:59:17.547Z,3.88
2023-03-05T12:04:22.063Z,3.80
2023-03-05T12:09:29.862Z,3.63
2023-03-05T12:14:44.027Z,3.43
2023-03-05T12:19:57.428Z,2.79
2023-03-05T12:25:26.007Z,2.16
2023-03-05T12:30:57.615Z,1.98
2023-03-05T12:36:42.365Z,2.02
2023-03-05T12:41:45.723Z,2.11
2023-03-05T12:47:18.566Z,2.21
2023-03-05T12:52:29.073Z,2.40
2023-03-05T12:57:34.531Z,2.55
2023-03-05T13:02:42.390Z,2.67
2023-03-05T13:07:47.186Z,2.72
2023-03-05T13:12:53.185Z,2.73
2023-03-05T13:17:58.439Z,2.66
2023-03-05T13:23:18.053Z,2.63
2023-03-05T13:28:21.567Z,2.67
2023-03-05T13:33:27.907Z,2.69
2023-03-05T13:38:36.448Z,2.69
2023-03-05T13:43:48.307Z,2.65
2023-03-05T13:48:52.706Z,2.59
2023-03-05T13:53:56.680Z,2.41
2023-03-05T13:59:00.448Z,2.18
2023-03-05T14:04:08.519Z,2.07
2023-03-05T14:09:21.517Z,2.00
2023-03-05T14:14:26.048Z,1.97
2023-03-05T14:19:37.271Z,2.02
2023-03-05T14:24:51.052Z,2.19
2023-03-05T14:29:54.757Z,2.38
2023-03-05T14:34:59.886Z,2.60
2023-03-05T14:40:06.184Z,3.00
2023-03-05T14:45:15.053Z,3.07
2023-03-05T14:50:20.809Z,2.99
2023-03-05T14:55:26.348Z,2.89
2023-03-05T15:00:30.323Z,2.78
2023-03-05T15:05:33.928Z,2.67
2023-03-05T15:10:37.260Z,2.59
2023-03-05T15:15:41.263Z,2.52
2023-03-05T15:20:45.274Z,2.43
2023-03-05T15:25:49.044Z,2.36
2023-03-05T15:30:52.565Z,2.30
2023-03-05T15:35:56.216Z,2.12
2023-03-05T15:41:01.934Z,1.93
2023-03-05T15:46:07.158Z,1.81
2023-03-05T15:51:10.677Z,1.74
2023-03-05T15:56:18.128Z,1.68
2023-03-05T16:01:23.217Z,1.61
2023-03-05T16:06:27.919Z,1.53
2023-03-05T16:11:34.693Z,1.46
2023-03-05T16:16:38.873Z,1.41
2023-03-05T16:21:42.594Z,1.37
2023-03-05T16:26:46.133Z,1.30
2023-03-05T16:31:49.540Z,1.27
2023-03-05T16:36:53.208Z,1.23
2023-03-05T16:41:57.204Z,1.16
2023-03-05T16:47:00.939Z,1.09
2023-03-05T16:52:16.500Z,1.01
2023-03-05T16:57:24.788Z,0.92
2023-03-05T17:02:28.460Z,0.87
2023-03-05T17:07:32.059Z,0.78
2023-03-05T17:12:35.716Z,0.72
2023-03-05T17:17:40.052Z,0.67
2023-03-05T17:22:43.601Z,0.60
2023-03-05T17:27:47.509Z,0.55
2023-03-05T17:32:53.453Z,0.52
2023-03-05T17:37:57.314Z,0.44
2023-03-05T17:43:02.529Z,0.37
2023-03-05T17:48:07.883Z,0.32
2023-03-05T17:53:11.575Z,0.30
2023-03-05T17:58:15.117Z,0.28
2023-03-05T18:03:18.483Z,0.23
2023-03-05T18:08:21.920Z,0.18
2023-03-05T18:13:25.524Z,0.14
2023-03-05T18:18:29.022Z,0.10
2023-03-05T18:23:32.492Z,0.07
2023-03-05T18:28:36.024Z,0.03
2023-03-05T18:33:39.448Z,-0.01
2023-03-05T18:38:43.031Z,-0.04
2023-03-05T18:43:46.605Z,-0.09
2023-03-05T18:48:50.154Z,-0.13
2023-03-05T18:53:54.468Z,-0.16
2023-03-05T18:58:58.909Z,-0.22
2023-03-05T19:04:03.059Z,-0.26
2023-03-05T19:09:16.553Z,-0.28
2023-03-05T19:14:20.727Z,-0.31
2023-03-05T19:19:24.780Z,-0.34
2023-03-05T19:24:30.154Z,-0.36
2023-03-05T19:29:37.018Z,-0.38
2023-03-05T19:34:40.927Z,-0.38
2023-03-05T19:39:44.318Z,-0.37
2023-03-05T19:44:47.962Z,-0.36
2023-03-05T19:49:51.712Z,-0.35
2023-03-05T19:54:55.251Z,-0.34
2023-03-05T19:59:58.880Z,-0.35
2023-03-05T20:05:02.436Z,-0.34
2023-03-05T20:10:07.403Z,-0.33
2023-03-05T20:15:11.469Z,-0.34
2023-03-05T20:20:18.045Z,-0.34
2023-03-05T20:25:24.062Z,-0.34
2023-03-05T20:30:28.100Z,-0.35
2023-03-05T20:35:31.857Z,-0.34
2023-03-05T20:40:35.712Z,-0.34
2023-03-05T20:45:39.419Z,-0.34
2023-03-05T20:50:43.009Z,-0.34
2023-03-05T20:55:46.607Z,-0.33
2023-03-05T21:00:50.173Z,-0.33
2023-03-05T21:05:55.799Z,-0.33
2023-03-05T21:11:00.141Z,-0.32
2023-03-05T21:16:07.963Z,-0.32
2023-03-05T21:21:11.640Z,-0.30
2023-03-05T21:26:15.418Z,-0.31
2023-03-05T21:31:21.338Z,-0.32
2023-03-05T21:36:24.796Z,-0.32
2023-03-05T21:41:29.275Z,-0.32
2023-03-05T21:46:34.570Z,-0.34
2023-03-05T21:51:48.868Z,-0.34
2023-03-05T21:56:52.339Z,-0.33
2023-03-05T22:01:55.923Z,-0.32
2023-03-05T22:06:59.471Z,-0.31
2023-03-05T22:12:04.080Z,-0.31
2023-03-05T22:17:07.711Z,-0.30
2023-03-05T22:22:11.279Z,-0.30
2023-03-05T22:27:14.856Z,-0.29
2023-03-05T22:32:18.321Z,-0.28
2023-03-05T22:37:21.881Z,-0.28
2023-03-05T22:42:25.467Z,-0.26
2023-03-05T22:47:29.279Z,-0.25
2023-03-05T22:52:32.743Z,-0.25
2023-03-05T22:57:36.329Z,-0.25
2023-03-05T23:02:40.938Z,-0.25
2023-03-05T23:07:45.563Z,-0.25
2023-03-05T23:12:51.393Z,-0.26
2023-03-05T23:17:55.045Z,-0.29
2023-03-05T23:22:59.092Z,-0.36
2023-03-05T23:28:03.316Z,-0.47
2023-03-05T23:33:08.207Z,-0.61
2023-03-05T23:38:13.949Z,-0.74
2023-03-05T23:43:18.873Z,-0.86
2023-03-05T23:48:24.322Z,-0.97
2023-03-05T23:53:30.501Z,-1.08
2023-03-05T23:58:35.622Z,-1.19
